Time;durP1;ratioP1;P1;durP2;ratioP2;P2;SDS_P1;SDS_P2;PMS_P1;PMS_P2;Temp;Humidity;BMP_temperature;BMP_pressure;BME280_temperature;BME280_humidity;BME280_pressure;Samples;Min_cycle;Max_cycle;Signal;HPM_P1;HPM_P2
2021/12/12 00:01:32;;;;;;;21.10;13.15;;;;;;;0.32;93.70;100075.41;6243801;22;20427;-83
2021/12/12 00:04:10;;;;;;;23.85;14.13;;;;;;;0.36;93.53;100091.81;6244370;22;20019;-82
2021/12/12 00:06:37;;;;;;;21.33;13.20;;;;;;;0.33;93.73;100084.34;6243768;22;20012;-83
2021/12/12 00:09:11;;;;;;;23.98;12.98;;;;;;;0.31;93.51;100075.75;6244346;22;20349;-83
2021/12/12 00:11:37;;;;;;;21.70;12.93;;;;;;;0.27;94.00;100091.28;6243453;22;20450;-82
2021/12/12 00:14:13;;;;;;;19.33;12.82;;;;;;;0.24;93.32;100092.03;6242340;23;20049;-83
2021/12/12 00:16:39;;;;;;;21.67;13.07;;;;;;;0.27;93.25;100102.19;6243640;23;20065;-82
2021/12/12 00:19:05;;;;;;;20.23;11.50;;;;;;;0.19;93.01;100087.66;6244093;22;20000;-81
2021/12/12 00:21:33;;;;;;;16.75;11.07;;;;;;;0.23;92.97;100106.81;6243412;22;20016;-81
2021/12/12 00:23:59;;;;;;;22.52;12.80;;;;;;;0.23;93.28;100117.72;6242841;23;20012;-82
2021/12/12 00:26:25;;;;;;;20.10;12.07;;;;;;;0.22;93.48;100107.97;6243517;22;20020;-82
2021/12/12 00:28:53;;;;;;;19.90;12.65;;;;;;;0.15;93.57;100103.19;6244124;22;20338;-82
2021/12/12 00:31:21;;;;;;;22.05;12.85;;;;;;;0.17;93.44;100110.97;6243166;22;20508;-82
2021/12/12 00:33:51;;;;;;;19.58;11.18;;;;;;;0.18;93.21;100113.34;6243769;22;20011;-82
2021/12/12 00:36:18;;;;;;;20.63;12.15;;;;;;;0.14;94.17;100125.34;6244212;22;20392;-82
2021/12/12 00:38:47;;;;;;;21.85;13.20;;;;;;;0.14;93.44;100120.69;6242016;23;20452;-81
2021/12/12 00:41:16;;;;;;;20.38;12.82;;;;;;;0.12;93.81;100123.03;6216832;23;20429;-81
2021/12/12 00:43:47;;;;;;;22.38;13.95;;;;;;;0.05;94.23;100127.53;6216717;23;20020;-81
2021/12/12 00:46:13;;;;;;;20.90;12.90;;;;;;;0.06;94.16;100134.56;6241914;23;20094;-81
2021/12/12 00:48:42;;;;;;;22.40;12.55;;;;;;;0.04;94.22;100136.91;6243456;22;20016;-81
2021/12/12 00:51:11;;;;;;;20.00;11.50;;;;;;;0.00;94.10;100131.38;6242331;23;20008;-81
2021/12/12 00:53:39;;;;;;;19.67;11.25;;;;;;;-0.05;93.90;100123.50;6243548;22;20095;-82
2021/12/12 00:56:05;;;;;;;21.15;13.00;;;;;;;-0.03;94.44;100132.88;6243517;22;20008;-82
2021/12/12 00:58:31;;;;;;;20.23;12.23;;;;;;;-0.02;94.19;100145.38;6243034;22;20319;-82
2021/12/12 01:01:07;;;;;;;23.55;14.45;;;;;;;-0.02;94.02;100139.91;6241997;23;20019;-82
2021/12/12 01:03:37;;;;;;;19.60;12.40;;;;;;;-0.04;94.22;100147.66;6241910;23;20048;-81
2021/12/12 01:06:05;;;;;;;22.98;13.55;;;;;;;-0.02;93.86;100145.38;6242389;23;20019;-82
2021/12/12 01:08:31;;;;;;;20.40;12.93;;;;;;;-0.05;94.30;100140.66;6243069;22;20016;-82
2021/12/12 01:11:04;;;;;;;21.90;13.60;;;;;;;-0.11;94.14;100135.84;6242102;23;20030;-82
2021/12/12 01:13:30;;;;;;;19.13;10.43;;;;;;;-0.05;93.39;100153.50;6242935;23;20012;-82
2021/12/12 01:16:06;;;;;;;22.48;12.70;;;;;;;0.00;93.49;100162.16;6243765;22;20046;-81
2021/12/12 01:18:38;;;;;;;21.17;13.07;;;;;;;-0.01;93.78;100151.63;6243027;22;20267;-82
2021/12/12 01:21:12;;;;;;;20.70;12.88;;;;;;;-0.04;93.73;100164.03;6241391;23;20338;-82
2021/12/12 01:23:55;;;;;;;21.80;11.95;;;;;;;0.02;93.07;100150.09;6243150;22;20095;-82
2021/12/12 01:26:22;;;;;;;18.33;10.88;;;;;;;0.00;92.85;100142.28;6243137;22;20008;-82
2021/12/12 01:28:53;;;;;;;13.50;8.82;;;;;;;0.04;92.28;100139.63;6243150;22;20019;-82
2021/12/12 01:31:24;;;;;;;20.00;11.68;;;;;;;0.06;92.86;100145.47;6243021;23;20079;-82
2021/12/12 01:34:08;;;;;;;18.02;11.23;;;;;;;0.07;92.38;100149.78;6243091;22;20044;-82
2021/12/12 01:36:53;;;;;;;20.42;12.50;;;;;;;0.09;92.54;100172.81;6242798;22;20017;-82
2021/12/12 01:39:22;;;;;;;20.30;11.85;;;;;;;0.02;92.67;100166.44;6243534;22;20088;-81
2021/12/12 01:42:08;;;;;;;19.17;10.95;;;;;;;0.10;92.11;100170.88;6242691;22;20008;-82
2021/12/12 01:44:48;;;;;;;19.35;12.20;;;;;;;0.08;92.29;100170.47;6240969;23;20071;-82
2021/12/12 01:47:31;;;;;;;21.58;12.30;;;;;;;0.06;92.55;100167.31;6241292;23;20012;-81
2021/12/12 01:49:59;;;;;;;21.00;12.38;;;;;;;0.08;91.94;100171.25;6216377;23;20016;-82
2021/12/12 01:52:27;;;;;;;19.95;12.27;;;;;;;0.07;92.35;100161.50;6241201;23;20116;-82
2021/12/12 01:54:58;;;;;;;14.45;9.18;;;;;;;0.08;91.58;100159.56;6243325;22;20012;-81
2021/12/12 01:57:32;;;;;;;18.15;10.68;;;;;;;0.03;91.81;100165.31;6241068;23;20442;-82
2021/12/12 02:00:03;;;;;;;18.42;11.50;;;;;;;0.07;91.47;100182.53;6242931;22;20016;-82
2021/12/12 02:02:37;;;;;;;18.20;10.35;;;;;;;0.07;91.12;100169.69;6183988;22;20037;-90
2021/12/12 02:05:11;;;;;;;18.77;10.93;;;;;;;0.14;90.90;100164.34;6180776;23;20043;-88
2021/12/12 02:07:53;;;;;;;16.85;10.70;;;;;;;0.10;90.95;100185.31;6181714;23;20013;-84
2021/12/12 02:10:25;;;;;;;18.20;11.35;;;;;;;0.08;90.41;100157.63;6181494;23;20013;-84
2021/12/12 02:12:51;;;;;;;16.85;10.48;;;;;;;0.05;90.68;100160.25;6156310;23;20040;-85
2021/12/12 02:15:17;;;;;;;17.80;9.00;;;;;;;0.12;90.59;100174.84;6181682;23;20001;-84
2021/12/12 02:17:46;;;;;;;15.10;7.40;;;;;;;0.06;90.37;100173.56;6181900;23;20009;-84
2021/12/12 02:20:31;;;;;;;18.02;10.15;;;;;;;0.09;90.16;100166.56;6156889;23;20355;-84
2021/12/12 02:36:36;;;;;;;16.15;9.23;;;;;;;0.17;89.55;100162.81;6181959;23;20019;-90
2021/12/12 02:39:08;;;;;;;16.88;9.77;;;;;;;0.23;89.96;100173.06;6181061;23;20012;-90
2021/12/12 02:41:35;;;;;;;17.05;9.82;;;;;;;0.23;89.57;100175.00;6181867;23;20009;-90
2021/12/12 02:44:03;;;;;;;15.77;9.43;;;;;;;0.20;90.15;100164.84;6181333;23;20020;-84
2021/12/12 02:46:34;;;;;;;16.70;8.77;;;;;;;0.15;90.01;100165.13;6156665;23;20095;-84
2021/12/12 02:49:22;;;;;;;12.82;7.78;;;;;;;0.23;89.94;100181.25;6155533;23;20017;-83
2021/12/12 02:51:48;;;;;;;12.48;8.25;;;;;;;0.24;89.35;100179.31;6181687;23;20020;-84
2021/12/12 02:54:14;;;;;;;15.25;8.38;;;;;;;0.25;89.41;100170.75;6181003;23;20005;-84
2021/12/12 02:56:45;;;;;;;16.52;10.13;;;;;;;0.24;90.05;100157.50;6158861;23;20021;-84
2021/12/12 02:59:15;;;;;;;16.40;10.00;;;;;;;0.18;89.79;100169.84;6182509;23;20341;-83
2021/12/12 03:01:46;;;;;;;16.65;10.48;;;;;;;0.24;90.15;100176.59;6133696;23;20009;-84
2021/12/12 03:04:12;;;;;;;14.75;8.32;;;;;;;0.24;89.76;100182.06;6157175;23;20451;-84
2021/12/12 03:06:41;;;;;;;16.98;10.15;;;;;;;0.27;89.65;100181.31;6182975;23;20071;-83
2021/12/12 03:09:15;;;;;;;14.20;8.50;;;;;;;0.24;89.90;100168.41;6132784;23;20379;-84
2021/12/12 03:11:41;;;;;;;15.73;9.52;;;;;;;0.25;90.39;100159.06;6157834;23;20446;-84
2021/12/12 03:14:08;;;;;;;17.00;10.38;;;;;;;0.18;90.28;100170.66;6182655;23;20005;-84
2021/12/12 03:16:36;;;;;;;15.27;10.02;;;;;;;0.21;90.51;100174.56;6158064;23;20041;-84
2021/12/12 03:19:03;;;;;;;17.92;8.90;;;;;;;0.17;90.73;100179.19;6157356;23;20029;-84
2021/12/12 03:21:32;;;;;;;17.05;9.80;;;;;;;0.24;90.57;100196.47;6158133;23;20017;-83
2021/12/12 03:24:10;;;;;;;12.30;8.50;;;;;;;0.25;91.03;100202.69;6183963;23;20100;-84
2021/12/12 03:26:36;;;;;;;18.38;10.00;;;;;;;0.24;90.73;100195.69;6184397;23;20016;-84
2021/12/12 03:29:06;;;;;;;17.77;9.85;;;;;;;0.29;90.82;100215.25;6182201;23;20100;-84
2021/12/12 03:31:35;;;;;;;16.77;10.32;;;;;;;0.22;90.79;100203.44;6182941;23;20013;-84
2021/12/12 03:34:06;;;;;;;14.80;8.85;;;;;;;0.19;90.95;100188.59;6157514;23;20024;-83
2021/12/12 03:36:31;;;;;;;17.27;10.85;;;;;;;0.21;91.18;100201.84;6183141;23;20099;-84
2021/12/12 03:39:00;;;;;;;19.33;10.57;;;;;;;0.26;91.45;100209.75;6182728;23;20013;-84
2021/12/12 03:41:30;;;;;;;16.10;10.75;;;;;;;0.23;91.98;100205.81;6183836;23;20017;-91
2021/12/12 03:43:59;;;;;;;16.20;9.20;;;;;;;0.30;92.00;100205.13;6183705;23;20010;-92
2021/12/12 03:46:24;;;;;;;18.58;10.90;;;;;;;0.26;92.10;100215.19;6183456;23;20088;-91
2021/12/12 03:48:51;;;;;;;18.10;10.13;;;;;;;0.26;92.54;100221.44;6182916;23;20032;-91
2021/12/12 03:51:20;;;;;;;19.35;11.07;;;;;;;0.15;92.84;100197.88;6182775;23;20084;-91
2021/12/12 03:53:46;;;;;;;15.75;10.57;;;;;;;0.21;92.50;100215.50;6182847;23;20017;-92
2021/12/12 03:56:12;;;;;;;18.67;11.65;;;;;;;0.23;92.83;100199.56;6183942;23;20048;-90
2021/12/12 03:58:38;;;;;;;20.77;11.48;;;;;;;0.16;92.96;100194.78;6182458;23;20167;-92
2021/12/12 04:01:18;;;;;;;16.50;10.25;;;;;;;0.22;92.65;100208.91;6182612;23;20335;-90
2021/12/12 04:03:45;;;;;;;17.73;9.50;;;;;;;0.22;92.64;100214.34;6156300;23;20398;-91
2021/12/12 04:06:14;;;;;;;17.85;11.05;;;;;;;0.11;92.93;100189.63;6157139;23;20080;-92
2021/12/12 04:08:43;;;;;;;14.82;9.13;;;;;;;0.29;92.56;100214.47;6182380;23;20017;-91
2021/12/12 04:11:17;;;;;;;18.15;9.90;;;;;;;0.27;91.75;100205.88;6182008;23;20065;-92
2021/12/12 04:13:45;;;;;;;16.25;10.65;;;;;;;0.27;92.00;100216.78;6182086;23;20071;-92
2021/12/12 04:16:10;;;;;;;19.02;11.55;;;;;;;0.30;92.44;100210.59;6182521;23;20032;-91
2021/12/12 04:18:37;;;;;;;15.57;10.90;;;;;;;0.22;92.12;100184.34;6182299;23;20043;-84
2021/12/12 04:21:03;;;;;;;14.70;8.95;;;;;;;0.16;92.17;100167.50;6181811;23;20008;-89
2021/12/12 04:23:29;;;;;;;18.23;10.57;;;;;;;0.29;92.03;100196.16;6157507;23;20009;-91
2021/12/12 04:26:11;;;;;;;16.98;9.52;;;;;;;0.37;91.29;100194.34;6182255;23;20399;-92
2021/12/12 04:28:38;;;;;;;20.60;11.23;;;;;;;0.38;91.01;100199.44;6183824;23;20017;-91
2021/12/12 04:31:03;;;;;;;16.30;10.20;;;;;;;0.39;90.18;100186.59;6156785;23;20005;-90
2021/12/12 04:33:29;;;;;;;13.20;8.20;;;;;;;0.38;90.15;100179.53;6182065;23;20447;-90
2021/12/12 04:35:55;;;;;;;15.18;9.57;;;;;;;0.42;89.98;100197.56;6181855;23;20036;-91
2021/12/12 04:38:22;;;;;;;12.25;8.25;;;;;;;0.47;89.02;100199.19;6183667;23;20005;-91
2021/12/12 04:40:48;;;;;;;14.18;8.63;;;;;;;0.43;89.10;100179.25;6181856;23;20459;-91
2021/12/12 04:43:13;;;;;;;13.45;8.77;;;;;;;0.44;88.59;100175.38;6183562;23;20040;-91
2021/12/12 04:45:47;;;;;;;13.68;8.80;;;;;;;0.46;88.41;100170.31;6183814;23;20131;-92
2021/12/12 04:51:17;;;;;;;10.43;6.78;;;;;;;0.42;87.40;100164.03;6181795;23;20458;-93
2021/12/12 04:53:55;;;;;;;10.50;7.47;;;;;;;0.53;86.92;100181.34;6157654;23;20017;-93
2021/12/12 04:56:22;;;;;;;11.82;7.40;;;;;;;0.54;86.32;100177.47;6181761;23;20095;-84
2021/12/12 04:59:09;;;;;;;11.98;7.60;;;;;;;0.55;85.58;100189.97;6181920;23;20013;-83
2021/12/12 05:01:38;;;;;;;10.50;6.05;;;;;;;0.59;84.79;100185.34;6132386;23;20053;-83
2021/12/12 05:04:16;;;;;;;11.35;7.28;;;;;;;0.52;85.78;100168.88;6182962;23;20033;-84
2021/12/12 05:06:59;;;;;;;10.48;7.00;;;;;;;0.50;84.67;100186.75;6181963;23;20016;-85
2021/12/12 05:09:50;;;;;;;10.47;7.33;;;;;;;0.54;84.23;100161.09;6181598;23;20041;-83
2021/12/12 05:12:23;;;;;;;8.98;5.55;;;;;;;0.60;84.02;100176.00;6183320;23;20020;-83
2021/12/12 05:14:53;;;;;;;12.02;7.47;;;;;;;0.55;84.83;100184.50;6181589;23;20024;-83
2021/12/12 05:17:28;;;;;;;11.02;6.50;;;;;;;0.52;84.52;100195.38;6181453;23;20466;-83
2021/12/12 05:19:59;;;;;;;13.23;8.30;;;;;;;0.52;84.62;100195.38;6132039;23;20029;-83
2021/12/12 05:22:37;;;;;;;11.25;7.13;;;;;;;0.52;84.33;100189.91;6181403;23;20017;-84
2021/12/12 05:25:07;;;;;;;9.85;6.22;;;;;;;0.41;83.61;100173.34;6181580;23;20088;-82
2021/12/12 05:27:34;;;;;;;11.70;8.38;;;;;;;0.47;84.48;100188.28;6156753;23;20012;-84
2021/12/12 05:30:06;;;;;;;12.00;7.90;;;;;;;0.52;84.15;100198.91;6181466;23;20490;-83
2021/12/12 05:32:33;;;;;;;12.07;8.13;;;;;;;0.46;84.11;100225.69;6181403;23;20063;-90
2021/12/12 05:35:00;;;;;;;13.20;8.20;;;;;;;0.44;84.13;100216.31;6182918;23;20020;-84
2021/12/12 05:37:26;;;;;;;12.15;6.05;;;;;;;0.41;83.70;100195.97;6181205;23;20488;-83
2021/12/12 05:39:57;;;;;;;12.13;7.85;;;;;;;0.51;83.77;100210.97;6181369;23;20012;-84
2021/12/12 05:42:22;;;;;;;12.82;7.85;;;;;;;0.51;83.87;100210.97;6181548;23;20013;-84
2021/12/12 05:44:48;;;;;;;11.52;7.22;;;;;;;0.43;84.16;100190.16;6181339;23;20592;-84
2021/12/12 05:47:14;;;;;;;11.35;7.28;;;;;;;0.55;83.34;100217.25;6182765;23;20009;-84
2021/12/12 05:49:41;;;;;;;12.52;8.20;;;;;;;0.56;83.45;100201.69;6156366;23;20013;-84
2021/12/12 05:52:12;;;;;;;11.75;7.90;;;;;;;0.51;84.06;100224.59;6181143;23;20013;-82
2021/12/12 05:54:38;;;;;;;10.75;7.20;;;;;;;0.49;84.13;100207.78;6180989;23;20017;-84
2021/12/12 05:57:04;;;;;;;11.32;6.78;;;;;;;0.43;83.89;100195.63;6156641;23;20435;-83
2021/12/12 05:59:30;;;;;;;12.30;8.02;;;;;;;0.46;83.98;100187.50;6180706;23;20005;-83
2021/12/12 06:01:57;;;;;;;12.30;8.32;;;;;;;0.40;84.11;100188.16;6180871;23;20134;-84
2021/12/12 06:04:23;;;;;;;13.25;8.15;;;;;;;0.29;84.15;100176.28;6181230;23;20013;-83
2021/12/12 06:06:49;;;;;;;10.90;6.78;;;;;;;0.37;83.38;100191.59;6181065;23;20019;-83
2021/12/12 06:09:16;;;;;;;10.75;7.20;;;;;;;0.40;84.38;100199.88;6155233;23;20024;-83
2021/12/12 06:11:47;;;;;;;10.45;7.32;;;;;;;0.37;84.35;100199.78;6131661;23;20028;-91
2021/12/12 06:14:14;;;;;;;14.13;6.40;;;;;;;0.35;83.73;100185.75;6182823;23;20016;-83
2021/12/12 06:16:40;;;;;;;14.38;7.90;;;;;;;0.36;84.00;100203.69;6181239;23;20013;-84
2021/12/12 06:19:11;;;;;;;11.70;6.60;;;;;;;0.34;83.34;100184.16;6180932;23;20017;-83
2021/12/12 06:21:37;;;;;;;10.73;7.25;;;;;;;0.33;83.15;100175.19;6156069;23;20005;-81
2021/12/12 06:24:03;;;;;;;12.23;7.50;;;;;;;0.40;83.36;100190.91;6182523;23;20020;-83
2021/12/12 06:26:29;;;;;;;9.57;6.70;;;;;;;0.36;83.08;100198.25;6181177;23;20438;-83
2021/12/12 06:28:55;;;;;;;12.52;6.65;;;;;;;0.27;82.48;100178.59;6156259;23;20029;-83
2021/12/12 06:31:21;;;;;;;9.13;5.82;;;;;;;0.40;82.66;100208.06;6182415;23;20796;-91
2021/12/12 06:33:47;;;;;;;12.05;6.53;;;;;;;0.34;82.63;100200.53;6183447;23;20020;-90
2021/12/12 06:36:14;;;;;;;12.95;6.45;;;;;;;0.30;82.30;100205.13;6184729;23;20077;-91
2021/12/12 06:38:43;;;;;;;9.23;6.18;;;;;;;0.37;82.31;100210.72;6184612;23;20063;-92
2021/12/12 06:41:10;;;;;;;9.93;6.53;;;;;;;0.36;82.40;100241.91;6184505;23;20009;-91
2021/12/12 06:43:36;;;;;;;9.70;6.38;;;;;;;0.33;82.49;100224.28;6158270;23;20352;-92
2021/12/12 06:46:04;;;;;;;9.75;6.20;;;;;;;0.35;82.09;100245.78;6183173;23;20008;-92
2021/12/12 06:48:30;;;;;;;10.40;6.07;;;;;;;0.34;81.81;100216.91;6184540;23;20404;-91
2021/12/12 06:50:56;;;;;;;9.45;6.22;;;;;;;0.33;81.83;100237.16;6183411;23;20044;-83
2021/12/12 06:53:24;;;;;;;9.90;6.25;;;;;;;0.29;82.31;100231.63;6184173;23;20009;-83
2021/12/12 06:55:51;;;;;;;9.82;6.28;;;;;;;0.30;81.87;100251.53;6157404;23;20079;-84
2021/12/12 06:58:18;;;;;;;6.90;4.47;;;;;;;0.31;81.64;100239.47;6182023;23;20005;-82
2021/12/12 07:00:46;;;;;;;7.65;5.70;;;;;;;0.28;81.88;100281.13;6182541;23;20439;-83
2021/12/12 07:03:19;;;;;;;9.23;4.93;;;;;;;0.30;81.01;100251.53;6181993;23;20017;-83
2021/12/12 07:05:45;;;;;;;10.48;5.47;;;;;;;0.35;80.80;100251.22;6157847;23;20017;-83
2021/12/12 07:08:11;;;;;;;10.75;6.40;;;;;;;0.24;81.29;100242.88;6182564;23;20344;-83
2021/12/12 07:10:37;;;;;;;10.00;6.30;;;;;;;0.31;81.19;100261.28;6182675;23;20012;-91
2021/12/12 07:13:05;;;;;;;7.55;4.85;;;;;;;0.27;80.88;100250.31;6183980;23;20024;-91
2021/12/12 07:15:38;;;;;;;8.32;5.20;;;;;;;0.35;80.92;100251.22;6184136;23;20009;-92
2021/12/12 07:18:13;;;;;;;7.70;5.50;;;;;;;0.28;80.59;100251.91;6182966;23;20017;-90
2021/12/12 07:20:39;;;;;;;6.72;4.75;;;;;;;0.40;80.13;100259.13;6182484;23;20076;-90
2021/12/12 07:23:07;;;;;;;7.55;5.78;;;;;;;0.42;80.37;100248.63;6182736;23;20439;-94
2021/12/12 07:25:34;;;;;;;8.32;4.93;;;;;;;0.40;79.65;100245.47;6182589;23;20049;-91
2021/12/12 07:28:00;;;;;;;11.13;6.57;;;;;;;0.39;80.06;100241.16;6158053;23;20079;-83
2021/12/12 07:30:26;;;;;;;8.93;5.65;;;;;;;0.54;79.63;100242.97;6182447;23;20076;-82
2021/12/12 07:32:52;;;;;;;7.72;5.38;;;;;;;0.51;79.73;100216.41;6181808;23;19997;-82
2021/12/12 07:35:18;;;;;;;8.00;5.45;;;;;;;0.58;79.60;100254.75;6181454;23;20013;-83
2021/12/12 07:37:44;;;;;;;8.50;5.70;;;;;;;0.61;79.26;100259.47;6184087;23;20092;-82
2021/12/12 07:40:10;;;;;;;9.00;5.90;;;;;;;0.60;79.33;100252.44;6181254;23;20450;-83
2021/12/12 07:42:37;;;;;;;8.68;5.43;;;;;;;0.64;78.70;100242.38;6181778;23;20458;-82
2021/12/12 07:45:05;;;;;;;7.60;5.40;;;;;;;0.68;78.74;100262.34;6182014;23;20041;-82
2021/12/12 07:47:31;;;;;;;7.32;4.82;;;;;;;0.69;78.50;100263.88;6181400;23;20032;-82
2021/12/12 07:49:56;;;;;;;7.43;5.57;;;;;;;0.74;78.41;100263.59;6181104;23;20439;-83
2021/12/12 07:52:25;;;;;;;9.10;5.63;;;;;;;0.68;78.54;100248.69;6179742;23;20013;-83
2021/12/12 07:54:51;;;;;;;10.98;5.95;;;;;;;0.82;78.00;100269.94;6181223;23;20063;-83
2021/12/12 07:57:18;;;;;;;8.32;5.70;;;;;;;0.88;78.50;100291.13;6155667;23;20021;-83
2021/12/12 07:59:44;;;;;;;11.77;7.20;;;;;;;0.89;77.97;100281.78;6179251;23;20032;-83
2021/12/12 08:02:11;;;;;;;9.07;6.60;;;;;;;0.93;77.76;100282.63;6180503;23;20338;-83
2021/12/12 08:04:38;;;;;;;12.30;7.38;;;;;;;0.90;77.38;100288.81;6182648;23;20505;-83
2021/12/12 08:07:08;;;;;;;12.25;8.05;;;;;;;0.93;78.33;100271.69;6155549;23;20043;-83
2021/12/12 08:09:35;;;;;;;9.82;5.82;;;;;;;0.92;77.50;100289.25;6180936;23;20016;-83
2021/12/12 08:12:01;;;;;;;15.57;7.80;;;;;;;0.96;78.23;100292.03;6180626;23;20447;-83
2021/12/12 08:14:28;;;;;;;9.45;5.40;;;;;;;0.86;77.51;100282.50;6179740;23;20017;-83
2021/12/12 08:16:55;;;;;;;10.93;6.00;;;;;;;0.94;78.15;100303.31;6155389;23;20075;-81
2021/12/12 08:19:23;;;;;;;10.52;4.93;;;;;;;0.93;77.70;100293.53;6178845;23;20491;-87
2021/12/12 08:21:49;;;;;;;10.85;5.65;;;;;;;0.97;77.92;100287.38;6182297;23;20013;-88
2021/12/12 08:24:16;;;;;;;8.45;5.93;;;;;;;0.97;78.42;100270.97;6179574;23;20020;-87
2021/12/12 08:26:44;;;;;;;9.57;6.45;;;;;;;1.03;78.37;100302.28;6180800;23;20104;-88
2021/12/12 08:29:12;;;;;;;9.82;6.50;;;;;;;0.97;77.78;100292.84;6180028;23;20388;-87
2021/12/12 08:31:38;;;;;;;7.28;5.03;;;;;;;1.04;77.29;100290.19;6180222;23;20005;-87
2021/12/12 08:34:06;;;;;;;9.65;6.03;;;;;;;1.11;77.75;100284.84;6181004;23;20447;-89
2021/12/12 08:36:34;;;;;;;8.40;5.45;;;;;;;1.08;76.94;100289.09;6179421;23;20019;-88
2021/12/12 08:38:59;;;;;;;19.00;10.48;;;;;;;1.17;77.29;100310.72;6177671;23;20017;-87
2021/12/12 08:41:27;;;;;;;10.63;6.72;;;;;;;1.15;77.08;100293.88;6179350;23;20048;-86
2021/12/12 08:43:53;;;;;;;13.32;8.63;;;;;;;1.11;77.31;100314.91;6180418;23;20506;-89
2021/12/12 08:46:20;;;;;;;12.80;7.32;;;;;;;1.22;76.44;100324.03;6180407;23;20036;-86
2021/12/12 08:48:48;;;;;;;9.93;5.95;;;;;;;1.13;76.63;100318.06;6155180;23;20115;-84
2021/12/12 08:51:29;;;;;;;13.25;7.15;;;;;;;1.28;76.58;100341.72;6180059;23;20103;-84
2021/12/12 08:53:56;;;;;;;10.63;5.80;;;;;;;1.28;76.28;100336.25;6181079;23;20104;-83
2021/12/12 08:56:41;;;;;;;8.82;5.70;;;;;;;1.27;75.73;100340.91;6180477;23;20068;-84
2021/12/12 08:59:09;;;;;;;9.52;6.22;;;;;;;1.42;76.07;100363.03;6159505;23;20036;-83
2021/12/12 09:01:37;;;;;;;10.65;6.70;;;;;;;1.39;75.56;100353.59;6155088;23;20013;-84
2021/12/12 09:04:05;;;;;;;7.68;5.38;;;;;;;1.40;76.24;100350.50;6180534;23;20091;-83
2021/12/12 09:06:35;;;;;;;10.23;5.97;;;;;;;1.45;75.88;100343.13;6181046;23;20017;-83
2021/12/12 09:09:06;;;;;;;9.43;5.63;;;;;;;1.35;75.90;100342.59;6180281;23;20016;-84
2021/12/12 09:11:38;;;;;;;8.52;6.03;;;;;;;1.53;75.95;100364.75;6179684;23;20021;-84
2021/12/12 09:14:15;;;;;;;8.90;4.90;;;;;;;1.57;75.34;100354.66;6180180;23;20017;-85
2021/12/12 09:16:48;;;;;;;8.85;4.43;;;;;;;1.58;74.36;100360.91;6155194;23;20021;-83
2021/12/12 09:19:21;;;;;;;7.20;5.10;;;;;;;1.55;75.23;100372.56;6179388;23;20351;-83
2021/12/12 09:22:01;;;;;;;9.07;6.05;;;;;;;1.62;75.86;100373.47;6179920;23;20017;-84
2021/12/12 09:24:30;;;;;;;7.05;4.93;;;;;;;1.73;74.93;100379.88;6155415;23;20021;-84
2021/12/12 09:27:02;;;;;;;10.68;5.78;;;;;;;1.64;74.45;100367.63;6181589;23;20020;-84
2021/12/12 09:29:43;;;;;;;7.95;6.00;;;;;;;1.72;74.58;100378.31;6154850;23;20795;-84
2021/12/12 09:32:12;;;;;;;9.05;5.68;;;;;;;1.75;75.15;100374.81;6180266;23;20020;-84
2021/12/12 09:34:45;;;;;;;8.68;5.63;;;;;;;1.79;74.73;100386.59;6180074;23;20076;-84
2021/12/12 09:37:16;;;;;;;7.95;5.43;;;;;;;1.82;74.19;100376.88;6179276;23;20068;-84
2021/12/12 09:39:45;;;;;;;8.45;5.07;;;;;;;1.84;73.59;100390.97;6155285;23;20023;-84
2021/12/12 09:42:19;;;;;;;7.40;5.45;;;;;;;1.93;74.14;100374.28;6179948;23;20100;-84
2021/12/12 09:45:02;;;;;;;8.02;5.43;;;;;;;1.96;73.72;100371.59;6179811;23;20013;-84
2021/12/12 09:51:20;;;;;;;8.05;5.68;;;;;;;2.18;72.64;100368.00;6180182;23;20509;-83
2021/12/12 09:53:58;;;;;;;9.13;5.38;;;;;;;2.24;72.33;100382.09;6130432;23;20084;-84
2021/12/12 09:57:01;;;;;;;7.65;5.75;;;;;;;2.31;72.00;100376.72;6181301;23;20017;-84
2021/12/12 09:59:39;;;;;;;8.18;5.88;;;;;;;2.35;72.01;100377.53;6178896;23;20017;-84
2021/12/12 10:02:21;;;;;;;8.07;5.07;;;;;;;2.38;71.84;100379.56;6182188;23;20013;-88
2021/12/12 10:05:34;;;;;;;6.82;5.05;;;;;;;2.57;71.26;100384.84;6180740;23;20473;-89
2021/12/12 10:08:16;;;;;;;7.15;4.93;;;;;;;2.54;70.54;100380.13;6092130;23;20169;-90
2021/12/12 10:11:11;;;;;;;10.85;5.28;;;;;;;2.59;70.78;100393.47;6180687;23;20028;-88
2021/12/12 10:13:44;;;;;;;8.80;5.15;;;;;;;2.70;70.46;100388.91;6181288;23;20028;-88
2021/12/12 10:16:35;;;;;;;8.52;6.00;;;;;;;2.81;71.13;100389.00;6182424;23;20013;-89
2021/12/12 10:19:27;;;;;;;8.68;5.40;;;;;;;2.85;70.54;100378.09;6156937;23;20025;-89
2021/12/12 10:22:12;;;;;;;9.70;5.60;;;;;;;2.83;70.04;100369.47;6126693;23;20113;-90
2021/12/12 10:24:51;;;;;;;8.80;5.05;;;;;;;2.95;69.47;100388.38;6180967;23;20028;-89
2021/12/12 10:27:50;;;;;;;8.20;5.45;;;;;;;3.01;70.06;100379.44;6181925;23;20020;-88
2021/12/12 10:30:29;;;;;;;9.50;6.22;;;;;;;3.19;69.97;100393.31;6158833;23;20454;-89
2021/12/12 10:33:12;;;;;;;7.97;5.75;;;;;;;3.24;68.84;100385.50;6181667;23;20674;-86
2021/12/12 10:35:45;;;;;;;6.63;4.72;;;;;;;3.35;68.82;100393.03;6179988;23;20024;-86
2021/12/12 10:38:16;;;;;;;8.05;4.63;;;;;;;3.38;68.66;100384.84;6182061;23;20064;-86
2021/12/12 10:40:48;;;;;;;7.13;5.05;;;;;;;3.32;67.98;100413.75;6182242;23;20021;-87
2021/12/12 10:43:22;;;;;;;7.28;5.25;;;;;;;3.39;68.91;100397.38;6181909;23;20036;-88
2021/12/12 10:45:51;;;;;;;8.88;5.45;;;;;;;3.36;68.82;100370.69;6181099;23;20071;-87
2021/12/12 10:48:19;;;;;;;7.95;5.32;;;;;;;3.43;68.24;100384.50;6181835;23;20040;-88
2021/12/12 10:51:09;;;;;;;7.50;4.63;;;;;;;3.60;68.01;100407.72;6180908;23;20626;-88
2021/12/12 10:53:47;;;;;;;7.35;4.80;;;;;;;3.57;67.67;100370.06;6155970;23;20024;-89
2021/12/12 10:56:42;;;;;;;7.22;4.90;;;;;;;3.69;67.81;100375.25;6180765;23;20328;-88
2021/12/12 10:59:24;;;;;;;9.02;6.00;;;;;;;3.79;67.70;100399.22;6160442;23;20024;-88
2021/12/12 11:01:53;;;;;;;7.47;4.88;;;;;;;3.66;67.00;100371.31;6180904;23;20051;-87
2021/12/12 11:04:23;;;;;;;6.47;4.28;;;;;;;3.81;66.84;100390.59;6180914;23;20017;-87
2021/12/12 11:06:50;;;;;;;11.10;5.88;;;;;;;3.86;66.83;100393.00;6180612;23;20382;-87
2021/12/12 11:09:29;;;;;;;9.82;6.32;;;;;;;3.93;67.32;100398.53;6181345;23;20032;-87
2021/12/12 11:12:09;;;;;;;8.65;4.70;;;;;;;4.01;66.44;100389.16;6131856;23;20383;-88
2021/12/12 11:14:46;;;;;;;9.80;4.35;;;;;;;3.86;65.76;100377.31;6181005;23;20027;-87
2021/12/12 11:17:24;;;;;;;6.43;4.82;;;;;;;3.91;66.11;100403.63;6180872;23;20020;-87
2021/12/12 11:20:22;;;;;;;7.25;4.63;;;;;;;3.87;65.07;100416.53;6181220;23;20387;-88
2021/12/12 11:23:00;;;;;;;6.88;4.60;;;;;;;3.78;66.02;100405.09;6158711;23;20443;-87
2021/12/12 11:25:31;;;;;;;6.13;4.05;;;;;;;3.83;65.84;100404.75;6183371;23;20056;-88
2021/12/12 11:28:00;;;;;;;8.20;4.97;;;;;;;3.84;66.10;100400.84;6181807;23;20316;-88
2021/12/12 11:30:35;;;;;;;7.47;4.57;;;;;;;3.81;66.29;100398.84;6181180;23;20016;-88
2021/12/12 11:33:06;;;;;;;7.40;4.63;;;;;;;4.01;65.88;100400.13;6156164;23;20510;-88
2021/12/12 11:35:32;;;;;;;6.80;4.80;;;;;;;4.04;66.13;100399.38;6180190;23;20027;-89
2021/12/12 11:38:02;;;;;;;8.05;4.70;;;;;;;4.19;65.96;100417.50;6180585;23;20016;-85
2021/12/12 11:40:41;;;;;;;6.70;4.43;;;;;;;4.20;65.68;100400.66;6180804;23;20013;-86
2021/12/12 11:43:24;;;;;;;7.13;4.80;;;;;;;4.27;65.92;100401.84;6180298;23;20041;-85
2021/12/12 11:45:56;;;;;;;7.65;5.07;;;;;;;4.13;66.38;100403.34;6182049;23;20013;-86
2021/12/12 11:48:46;;;;;;;6.22;3.85;;;;;;;4.29;66.21;100421.47;6180377;23;20092;-84
2021/12/12 11:51:15;;;;;;;7.18;4.70;;;;;;;4.27;66.82;100416.38;6155627;23;20376;-85
2021/12/12 11:53:45;;;;;;;6.65;4.03;;;;;;;4.33;66.09;100412.06;6181451;23;20029;-87
2021/12/12 11:56:45;;;;;;;8.38;5.28;;;;;;;4.31;66.63;100427.34;6180918;23;20009;-85
2021/12/12 11:59:19;;;;;;;10.75;5.18;;;;;;;4.26;66.60;100412.03;6180538;23;20025;-86
2021/12/12 12:01:48;;;;;;;7.55;5.07;;;;;;;4.43;66.29;100405.84;6180712;23;20036;-86
2021/12/12 12:04:30;;;;;;;8.40;5.57;;;;;;;4.47;66.64;100395.66;6180151;23;20096;-85
2021/12/12 12:07:22;;;;;;;8.25;5.45;;;;;;;4.43;67.37;100411.34;6156985;23;20407;-85